Time,TemperatureF,DewpointF,PressureIn,WindDirection,WindDirectionDegrees,WindSpeedMPH,WindSpeedGustMPH,Humidity,HourlyPrecipIn,Conditions,Clouds,dailyrainin,SoftwareType,DateUTC
2013-06-18 00:06:00,67.3,67.0,29.94,WNW,300,0.0,1.0,97,0.00,,,0.00,weatherlink.com 1.10,2013-06-18 04:06:00,
2013-06-18 00:21:00,67.1,66.0,29.94,WNW,301,0.0,0.0,97,0.00,,,0.00,weatherlink.com 1.10,2013-06-18 04:21:00,
2013-06-18 00:36:00,67.2,66.0,29.93,WNW,301,0.0,0.0,97,0.00,,,0.00,weatherlink.com 1.10,2013-06-18 04:36:00,
2013-06-18 00:51:00,67.2,66.0,29.93,WNW,301,0.0,0.0,97,0.00,,,0.00,weatherlink.com 1.10,2013-06-18 04:51:00,
2013-06-18 01:06:00,67.1,66.0,29.92,WNW,301,0.0,0.0,97,0.00,,,0.00,weatherlink.com 1.10,2013-06-18 05:06:00,
2013-06-18 01:21:00,67.1,66.0,29.92,WNW,300,0.0,0.0,97,0.00,,,0.00,weatherlink.com 1.10,2013-06-18 05:21:00,
2013-06-18 01:36:00,67.1,66.0,29.91,WNW,300,0.0,0.0,97,0.00,,,0.00,weatherlink.com 1.10,2013-06-18 05:36:00,
2013-06-18 01:51:00,67.1,66.0,29.90,WNW,301,0.0,0.0,97,0.00,,,0.00,weatherlink.com 1.10,2013-06-18 05:51:00,
2013-06-18 02:06:00,67.2,66.0,29.90,WNW,301,0.0,0.0,97,0.00,,,0.00,weatherlink.com 1.10,2013-06-18 06:06:00,
2013-06-18 02:36:00,67.5,67.0,29.89,WNW,301,0.0,0.0,97,0.00,,,0.00,weatherlink.com 1.10,2013-06-18 06:36:00,
2013-06-18 02:51:00,67.6,67.0,29.89,WNW,300,0.0,0.0,97,0.00,,,0.00,weatherlink.com 1.10,2013-06-18 06:51:00,
2013-06-18 03:06:00,67.7,67.0,29.88,WNW,301,0.0,1.0,97,0.00,,,0.00,weatherlink.com 1.10,2013-06-18 07:06:00,
2013-06-18 03:21:00,67.8,67.0,29.88,WNW,301,0.0,1.0,97,0.00,,,0.00,weatherlink.com 1.10,2013-06-18 07:21:00,
2013-06-18 03:36:00,67.9,67.0,29.87,WNW,301,0.0,0.0,97,0.00,,,0.00,weatherlink.com 1.10,2013-06-18 07:36:00,
2013-06-18 03:51:00,67.9,67.0,29.87,ESE,104,0.0,1.0,97,0.00,,,0.00,weatherlink.com 1.10,2013-06-18 07:51:00,
2013-06-18 04:06:00,67.9,67.0,29.86,ESE,105,0.0,0.0,97,0.00,,,0.00,weatherlink.com 1.10,2013-06-18 08:06:00,
2013-06-18 04:21:00,67.9,67.0,29.86,ESE,105,0.0,0.0,97,0.00,,,0.00,weatherlink.com 1.10,2013-06-18 08:21:00,
2013-06-18 04:36:00,68.0,67.0,29.87,ESE,104,0.0,0.0,97,0.00,,,0.00,weatherlink.com 1.10,2013-06-18 08:36:00,
2013-06-18 04:51:00,68.0,67.0,29.87,ESE,104,0.0,0.0,97,0.00,,,0.00,weatherlink.com 1.10,2013-06-18 08:51:00,
2013-06-18 05:06:00,68.0,67.0,29.87,East,88,0.0,0.0,97,0.01,,,0.01,weatherlink.com 1.10,2013-06-18 09:06:00,
2013-06-18 05:21:00,68.0,67.0,29.87,East,87,0.0,0.0,97,0.01,,,0.01,weatherlink.com 1.10,2013-06-18 09:21:00,
2013-06-18 06:31:00,68.5,68.0,29.88,ENE,60,0.0,1.0,97,0.00,,,0.01,weatherlink.com 1.10,2013-06-18 10:31:00,
2013-06-18 06:36:00,68.5,68.0,29.89,ENE,59,0.0,1.0,97,0.00,,,0.01,weatherlink.com 1.10,2013-06-18 10:36:00,
2013-06-18 06:58:00,68.6,68.0,29.88,ESE,114,0.0,2.0,97,0.00,,,0.01,weatherlink.com 1.10,2013-06-18 10:58:00,
2013-06-18 07:07:00,68.7,68.0,29.88,East,84,0.0,3.0,97,0.00,,,0.01,weatherlink.com 1.10,2013-06-18 11:07:00,
2013-06-18 07:22:00,68.8,68.0,29.88,ESE,122,2.0,2.0,97,0.00,,,0.01,weatherlink.com 1.10,2013-06-18 11:22:00,
2013-06-18 07:37:00,68.8,68.0,29.88,ESE,105,2.0,3.0,97,0.00,,,0.01,weatherlink.com 1.10,2013-06-18 11:37:00,
2013-06-18 07:52:00,69.0,68.0,29.88,ESE,110,1.0,2.0,97,0.00,,,0.01,weatherlink.com 1.10,2013-06-18 11:52:00,
2013-06-18 08:07:00,69.2,68.0,29.88,SE,131,0.0,4.0,97,0.00,,,0.01,weatherlink.com 1.10,2013-06-18 12:07:00,
2013-06-18 08:22:00,69.7,69.0,29.88,SE,131,0.0,1.0,97,0.00,,,0.01,weatherlink.com 1.10,2013-06-18 12:22:00,
2013-06-18 08:37:00,70.0,69.0,29.88,ESE,116,0.0,2.0,97,0.00,,,0.01,weatherlink.com 1.10,2013-06-18 12:37:00,
2013-06-18 08:52:00,70.5,70.0,29.89,East,84,0.0,2.0,97,0.00,,,0.01,weatherlink.com 1.10,2013-06-18 12:52:00,
2013-06-18 09:07:00,71.1,70.0,29.89,SSE,153,1.0,4.0,96,0.00,,,0.01,weatherlink.com 1.10,2013-06-18 13:07:00,
2013-06-18 09:22:00,71.3,70.0,29.89,East,80,1.0,1.0,95,0.00,,,0.01,weatherlink.com 1.10,2013-06-18 13:22:00,
2013-06-18 09:37:00,71.4,70.0,29.89,SSE,153,1.0,1.0,95,0.00,,,0.01,weatherlink.com 1.10,2013-06-18 13:37:00,
2013-06-18 09:52:00,71.2,70.0,29.89,ESE,113,0.0,1.0,95,0.00,,,0.01,weatherlink.com 1.10,2013-06-18 13:52:00,
2013-06-18 10:07:00,70.7,69.0,29.90,SE,132,1.0,1.0,95,0.05,,,0.06,weatherlink.com 1.10,2013-06-18 14:07:00,
2013-06-18 10:22:00,70.3,69.0,29.89,ESE,116,1.0,2.0,96,0.12,,,0.13,weatherlink.com 1.10,2013-06-18 14:22:00,
2013-06-18 10:37:00,70.2,69.0,29.88,ENE,71,0.0,2.0,96,0.14,,,0.15,weatherlink.com 1.10,2013-06-18 14:37:00,
2013-06-18 10:52:00,70.3,69.0,29.87,ENE,71,0.0,1.0,96,0.14,,,0.15,weatherlink.com 1.10,2013-06-18 14:52:00,
2013-06-18 11:07:00,71.0,70.0,29.86,ENE,71,0.0,1.0,96,0.09,,,0.15,weatherlink.com 1.10,2013-06-18 15:07:00,
2013-06-18 11:22:00,71.5,70.0,29.86,SE,134,1.0,3.0,95,0.02,,,0.15,weatherlink.com 1.10,2013-06-18 15:22:00,
2013-06-18 11:37:00,72.5,71.0,29.86,East,84,0.0,1.0,94,0.00,,,0.15,weatherlink.com 1.10,2013-06-18 15:37:00,
2013-06-18 11:52:00,73.4,72.0,29.85,SE,126,0.0,2.0,94,0.00,,,0.15,weatherlink.com 1.10,2013-06-18 15:52:00,
2013-06-18 12:07:00,74.1,72.0,29.85,ESE,103,2.0,3.0,92,0.00,,,0.15,weatherlink.com 1.10,2013-06-18 16:07:00,
2013-06-18 12:22:00,75.1,72.0,29.84,South,172,1.0,3.0,91,0.00,,,0.15,weatherlink.com 1.10,2013-06-18 16:22:00,
2013-06-18 12:37:00,76.3,73.0,29.83,ESE,113,1.0,4.0,89,0.00,,,0.15,weatherlink.com 1.10,2013-06-18 16:37:00,
2013-06-18 12:52:00,78.6,76.0,29.83,ENE,65,2.0,3.0,90,0.00,,,0.15,weatherlink.com 1.10,2013-06-18 16:52:00,
2013-06-18 13:07:00,80.2,74.0,29.82,SE,138,1.0,7.0,80,0.00,,,0.15,weatherlink.com 1.10,2013-06-18 17:07:00,
2013-06-18 13:22:00,80.2,74.0,29.82,NE,53,1.0,6.0,80,0.00,,,0.15,weatherlink.com 1.10,2013-06-18 17:22:00,
2013-06-18 13:37:00,80.2,74.0,29.81,ENE,57,3.0,4.0,82,0.00,,,0.15,weatherlink.com 1.10,2013-06-18 17:37:00,
2013-06-18 13:52:00,81.9,75.0,29.81,North,360,3.0,3.0,79,0.00,,,0.15,weatherlink.com 1.10,2013-06-18 17:52:00,
2013-06-18 14:07:00,81.0,74.0,29.80,South,181,0.0,2.0,78,0.00,,,0.15,weatherlink.com 1.10,2013-06-18 18:07:00,
2013-06-18 14:22:00,81.3,75.0,29.80,SSW,199,0.0,2.0,80,0.00,,,0.15,weatherlink.com 1.10,2013-06-18 18:22:00,
2013-06-18 14:37:00,81.9,75.0,29.79,SW,217,1.0,4.0,79,0.00,,,0.15,weatherlink.com 1.10,2013-06-18 18:37:00,
2013-06-18 14:53:00,82.2,75.0,29.79,NNE,16,2.0,3.0,79,0.00,,,0.15,weatherlink.com 1.10,2013-06-18 18:53:00,
2013-06-18 15:08:00,81.6,75.0,29.78,SSE,160,0.0,6.0,79,0.00,,,0.15,weatherlink.com 1.10,2013-06-18 19:08:00,
2013-06-18 15:23:00,80.1,73.0,29.78,East,79,1.0,2.0,80,0.00,,,0.15,weatherlink.com 1.10,2013-06-18 19:23:00,
2013-06-18 15:38:00,79.7,73.0,29.78,South,188,1.0,4.0,81,0.00,,,0.15,weatherlink.com 1.10,2013-06-18 19:38:00,
2013-06-18 15:53:00,80.1,73.0,29.78,SE,143,0.0,3.0,80,0.00,,,0.15,weatherlink.com 1.10,2013-06-18 19:53:00,
2013-06-18 16:08:00,80.1,74.0,29.78,NW,315,0.0,5.0,82,0.00,,,0.15,weatherlink.com 1.10,2013-06-18 20:08:00,
2013-06-18 16:23:00,79.6,74.0,29.78,ESE,120,0.0,1.0,82,0.00,,,0.15,weatherlink.com 1.10,2013-06-18 20:23:00,
2013-06-18 16:38:00,79.6,74.0,29.77,NNW,347,2.0,2.0,83,0.00,,,0.15,weatherlink.com 1.10,2013-06-18 20:38:00,
2013-06-18 16:53:00,77.5,73.0,29.76,ESE,111,1.0,2.0,86,0.00,,,0.15,weatherlink.com 1.10,2013-06-18 20:53:00,
2013-06-18 17:08:00,77.9,74.0,29.77,SSE,159,1.0,1.0,86,0.00,,,0.15,weatherlink.com 1.10,2013-06-18 21:08:00,
2013-06-18 17:23:00,78.1,73.0,29.77,SSE,157,0.0,1.0,84,0.00,,,0.15,weatherlink.com 1.10,2013-06-18 21:23:00,
2013-06-18 17:38:00,78.0,74.0,29.76,SSE,158,0.0,1.0,86,0.00,,,0.15,weatherlink.com 1.10,2013-06-18 21:38:00,
2013-06-18 17:53:00,77.9,74.0,29.77,SSW,201,0.0,3.0,86,0.00,,,0.15,weatherlink.com 1.10,2013-06-18 21:53:00,
2013-06-18 18:08:00,77.9,74.0,29.77,East,87,1.0,1.0,87,0.00,,,0.15,weatherlink.com 1.10,2013-06-18 22:08:00,
2013-06-18 18:23:00,79.5,73.0,29.77,East,84,0.0,2.0,81,0.00,,,0.15,weatherlink.com 1.10,2013-06-18 22:23:00,
2013-06-18 18:38:00,79.1,74.0,29.78,SSE,158,0.0,1.0,84,0.00,,,0.15,weatherlink.com 1.10,2013-06-18 22:38:00,
2013-06-18 18:53:00,77.6,73.0,29.78,SSE,158,0.0,1.0,84,0.00,,,0.15,weatherlink.com 1.10,2013-06-18 22:53:00,
2013-06-18 19:08:00,76.5,72.0,29.78,WNW,287,1.0,2.0,85,0.00,,,0.15,weatherlink.com 1.10,2013-06-18 23:08:00,
2013-06-18 19:23:00,75.9,72.0,29.79,WNW,288,0.0,1.0,88,0.00,,,0.15,weatherlink.com 1.10,2013-06-18 23:23:00,
2013-06-18 19:38:00,75.8,72.0,29.79,WNW,288,0.0,1.0,88,0.00,,,0.15,weatherlink.com 1.10,2013-06-18 23:38:00,
2013-06-18 19:53:00,75.6,72.0,29.79,WNW,288,0.0,0.0,88,0.00,,,0.15,weatherlink.com 1.10,2013-06-18 23:53:00,
2013-06-18 20:08:00,75.0,71.0,29.80,WNW,287,1.0,1.0,88,0.00,,,0.15,weatherlink.com 1.10,2013-06-19 00:08:00,
2013-06-18 20:23:00,74.3,71.0,29.80,West,281,0.0,1.0,88,0.00,,,0.15,weatherlink.com 1.10,2013-06-19 00:23:00,
2013-06-18 20:38:00,73.7,70.0,29.81,SE,127,0.0,2.0,87,0.00,,,0.15,weatherlink.com 1.10,2013-06-19 00:38:00,
2013-06-18 20:53:00,72.9,68.0,29.81,SE,127,0.0,1.0,83,0.00,,,0.15,weatherlink.com 1.10,2013-06-19 00:53:00,
2013-06-18 21:08:00,72.0,67.0,29.82,SE,127,0.0,1.0,85,0.00,,,0.15,weatherlink.com 1.10,2013-06-19 01:08:00,
2013-06-18 21:23:00,71.4,67.0,29.82,SE,127,0.0,1.0,85,0.00,,,0.15,weatherlink.com 1.10,2013-06-19 01:23:00,
2013-06-18 21:38:00,70.8,67.0,29.82,NNE,28,0.0,3.0,86,0.00,,,0.15,weatherlink.com 1.10,2013-06-19 01:38:00,
2013-06-18 21:53:00,71.2,65.0,29.83,WSW,242,0.0,5.0,81,0.00,,,0.15,weatherlink.com 1.10,2013-06-19 01:53:00,
2013-06-18 22:08:00,71.1,65.0,29.84,SE,129,0.0,2.0,81,0.00,,,0.15,weatherlink.com 1.10,2013-06-19 02:08:00,
2013-06-18 22:23:00,70.7,65.0,29.86,WSW,249,0.0,2.0,81,0.00,,,0.15,weatherlink.com 1.10,2013-06-19 02:23:00,
2013-06-18 22:38:00,70.2,64.0,29.86,ENE,70,0.0,2.0,80,0.00,,,0.15,weatherlink.com 1.10,2013-06-19 02:38:00,
2013-06-18 22:53:00,69.9,64.0,29.87,NW,316,0.0,2.0,81,0.00,,,0.15,weatherlink.com 1.10,2013-06-19 02:53:00,
2013-06-18 23:08:00,69.9,64.0,29.87,WNW,287,1.0,5.0,81,0.00,,,0.15,weatherlink.com 1.10,2013-06-19 03:08:00,
2013-06-18 23:23:00,70.0,63.0,29.87,SW,222,1.0,4.0,79,0.00,,,0.15,weatherlink.com 1.10,2013-06-19 03:23:00,
2013-06-18 23:38:00,70.2,63.0,29.88,WSW,257,1.0,7.0,78,0.00,,,0.15,weatherlink.com 1.10,2013-06-19 03:38:00,
2013-06-18 23:53:00,70.2,63.0,29.88,NW,307,2.0,6.0,78,0.00,,,0.15,weatherlink.com 1.10,2013-06-19 03:53:00,